Time;durP1;ratioP1;P1;durP2;ratioP2;P2;SDS_P1;SDS_P2;PMS_P1;PMS_P2;Temp;Humidity;BMP_temperature;BMP_pressure;BME280_temperature;BME280_humidity;BME280_pressure;Samples;Min_cycle;Max_cycle;Signal;HPM_P1;HPM_P2
2022/05/27 00:01:03;;;;;;;2.80;1.17;;;21.30;81.90;;;;;;4991674;28;20951;-70
2022/05/27 00:03:31;;;;;;;1.70;1.30;;;21.30;82.00;;;;;;4990977;28;20959;-70
2022/05/27 00:05:57;;;;;;;1.33;1.20;;;21.30;82.90;;;;;;4992134;28;20446;-69
2022/05/27 00:08:26;;;;;;;1.33;1.20;;;21.30;82.20;;;;;;4992023;28;20931;-70
2022/05/27 00:10:55;;;;;;;3.00;1.40;;;21.30;82.20;;;;;;4990903;28;20449;-69
2022/05/27 00:13:21;;;;;;;2.70;1.60;;;21.30;82.30;;;;;;4990890;28;20928;-70
2022/05/27 00:15:47;;;;;;;2.50;1.37;;;21.30;82.30;;;;;;4992199;28;20490;-69
2022/05/27 00:18:13;;;;;;;1.73;1.33;;;21.30;82.30;;;;;;4975119;28;20435;-70
2022/05/27 00:20:40;;;;;;;2.43;1.50;;;21.20;82.30;;;;;;4992191;28;20443;-71
2022/05/27 00:23:08;;;;;;;2.93;1.23;;;21.20;82.30;;;;;;4991881;28;20437;-69
2022/05/27 00:25:40;;;;;;;4.53;1.53;;;21.20;82.30;;;;;;4992275;28;20444;-70
2022/05/27 00:28:06;;;;;;;2.80;1.37;;;21.20;82.30;;;;;;4990963;28;20955;-69
2022/05/27 00:30:36;;;;;;;2.93;1.30;;;21.20;82.30;;;;;;4991804;28;20829;-69
2022/05/27 00:33:03;;;;;;;1.50;1.00;;;21.20;82.40;;;;;;4993753;28;20427;-70
2022/05/27 00:35:34;;;;;;;3.03;1.23;;;21.20;82.40;;;;;;4995651;28;20447;-71
2022/05/27 00:38:04;;;;;;;1.53;1.40;;;21.20;82.50;;;;;;4995556;28;20454;-70
2022/05/27 00:40:40;;;;;;;3.47;1.50;;;21.20;82.50;;;;;;4994347;28;20462;-71
2022/05/27 00:43:14;;;;;;;1.83;1.37;;;21.10;82.40;;;;;;4995643;28;20454;-70
2022/05/27 00:45:47;;;;;;;1.23;1.10;;;21.20;82.60;;;;;;4995148;28;20791;-70
2022/05/27 00:48:18;;;;;;;1.40;1.30;;;21.20;82.60;;;;;;4978185;28;20506;-70
2022/05/27 00:50:47;;;;;;;2.30;1.57;;;21.20;82.70;;;;;;4993844;28;20462;-69
2022/05/27 00:53:24;;;;;;;2.63;1.50;;;21.10;82.70;;;;;;4994038;28;20494;-70
2022/05/27 00:55:57;;;;;;;2.13;1.50;;;21.10;82.70;;;;;;5010149;28;20498;-70
2022/05/27 00:58:43;;;;;;;2.50;1.50;;;21.10;82.80;;;;;;4994295;28;20440;-70
2022/05/27 01:01:10;;;;;;;1.77;1.20;;;21.10;83.00;;;;;;4994871;28;20457;-70
2022/05/27 01:03:36;;;;;;;3.60;1.50;;;21.10;83.00;;;;;;4977853;28;20468;-70
2022/05/27 01:06:02;;;;;;;1.60;1.43;;;21.10;83.10;;;;;;4993862;28;20423;-70
2022/05/27 01:08:32;;;;;;;4.23;1.90;;;21.10;83.10;;;;;;4993452;28;20608;-71
2022/05/27 01:11:16;;;;;;;1.50;1.37;;;21.10;83.10;;;;;;4993733;28;20447;-70
2022/05/27 01:13:57;;;;;;;4.43;1.73;;;21.00;83.10;;;;;;4994020;28;20820;-69
2022/05/27 01:16:38;;;;;;;2.50;1.70;;;21.00;83.10;;;;;;4977902;28;20431;-70
2022/05/27 01:22:41;;;;;;;1.90;1.80;;;21.00;83.30;;;;;;4991110;28;20448;-70
2022/05/27 01:25:40;;;;;;;2.70;2.07;;;21.00;83.40;;;;;;4967931;28;20465;-69
2022/05/27 01:28:26;;;;;;;2.10;1.53;;;21.00;83.40;;;;;;4986166;28;20472;-69
2022/05/27 01:31:28;;;;;;;2.47;1.67;;;21.00;83.40;;;;;;4993638;28;20541;-70
2022/05/27 01:34:03;;;;;;;2.07;1.60;;;20.90;83.50;;;;;;4977187;28;20462;-70
2022/05/27 01:37:01;;;;;;;3.90;1.60;;;20.90;83.60;;;;;;4993905;28;20814;-70
2022/05/27 01:39:52;;;;;;;6.23;1.60;;;20.90;83.70;;;;;;4987725;28;20466;-71
2022/05/27 01:42:35;;;;;;;3.10;1.80;;;20.90;83.70;;;;;;4991911;28;20417;-70
2022/05/27 01:45:12;;;;;;;2.57;1.50;;;20.90;83.80;;;;;;4994200;28;20461;-70
2022/05/27 01:47:53;;;;;;;3.03;1.40;;;20.80;83.70;;;;;;4992682;28;20806;-69
2022/05/27 01:50:37;;;;;;;3.40;1.93;;;20.80;83.80;;;;;;4994285;28;20469;-70
2022/05/27 01:53:25;;;;;;;3.67;2.00;;;20.80;83.90;;;;;;4977056;28;20574;-70
2022/05/27 01:56:05;;;;;;;2.30;2.00;;;20.80;83.90;;;;;;4977104;28;20423;-69
2022/05/27 01:58:41;;;;;;;4.13;1.73;;;20.80;84.10;;;;;;4993870;28;20417;-70
2022/05/27 02:01:14;;;;;;;2.87;2.00;;;20.80;84.10;;;;;;4992678;28;20931;-70
2022/05/27 02:04:00;;;;;;;3.10;1.97;;;20.80;84.20;;;;;;4994082;28;20480;-69
2022/05/27 02:06:33;;;;;;;3.43;1.67;;;20.80;84.20;;;;;;4992581;28;20779;-69
2022/05/27 02:09:20;;;;;;;3.80;1.60;;;20.80;84.20;;;;;;4992363;28;20997;-70
2022/05/27 02:11:54;;;;;;;6.47;2.00;;;20.80;84.20;;;;;;4961126;28;20426;-69
2022/05/27 02:14:27;;;;;;;2.80;1.50;;;20.70;84.20;;;;;;4992834;28;20916;-69
2022/05/27 02:17:01;;;;;;;1.93;1.57;;;20.70;84.20;;;;;;4976647;28;20427;-69
2022/05/27 02:19:48;;;;;;;4.07;2.10;;;20.70;84.20;;;;;;4991651;28;20538;-71
2022/05/27 02:22:17;;;;;;;8.93;2.17;;;20.70;84.20;;;;;;4993695;28;21040;-69
2022/05/27 02:24:55;;;;;;;2.10;1.50;;;20.70;84.20;;;;;;4993889;28;20492;-69
2022/05/27 02:27:30;;;;;;;2.67;1.63;;;20.70;84.20;;;;;;5008830;28;20421;-69
2022/05/27 02:30:03;;;;;;;3.97;1.80;;;20.70;84.30;;;;;;4976176;28;20463;-70
2022/05/27 02:35:55;;;;;;;2.40;1.80;;;20.70;84.50;;;;;;4992673;28;20459;-70
2022/05/27 02:38:22;;;;;;;2.27;1.70;;;20.60;84.40;;;;;;4982179;28;20787;-70
2022/05/27 02:41:00;;;;;;;2.23;1.70;;;20.60;84.50;;;;;;4993204;28;20434;-70
2022/05/27 02:43:41;;;;;;;2.50;2.23;;;20.70;84.80;;;;;;4976057;28;20810;-69
2022/05/27 02:46:34;;;;;;;3.37;1.83;;;20.60;84.70;;;;;;4992283;28;20442;-69
2022/05/27 02:49:04;;;;;;;2.70;1.90;;;20.60;84.90;;;;;;4991860;28;20493;-70
2022/05/27 02:51:54;;;;;;;3.77;1.77;;;20.60;85.00;;;;;;4993582;28;20945;-70
2022/05/27 02:54:30;;;;;;;3.00;1.90;;;20.60;85.10;;;;;;4973079;28;20434;-70
2022/05/27 02:57:14;;;;;;;2.80;1.80;;;20.60;85.20;;;;;;4975188;28;20827;-69
2022/05/27 02:59:41;;;;;;;4.33;1.43;;;20.60;85.40;;;;;;4991782;28;20454;-70
2022/05/27 03:02:14;;;;;;;2.53;1.80;;;20.50;85.50;;;;;;4975915;28;20439;-70
2022/05/27 03:04:44;;;;;;;3.20;2.00;;;20.50;85.60;;;;;;4984104;28;20467;-69
2022/05/27 03:07:29;;;;;;;3.80;1.80;;;20.50;85.80;;;;;;4983081;28;20419;-70
2022/05/27 03:10:16;;;;;;;2.47;1.70;;;20.50;86.00;;;;;;4993018;28;20463;-69
2022/05/27 03:12:53;;;;;;;3.00;1.77;;;20.50;86.10;;;;;;4990976;28;20426;-69
2022/05/27 03:16:12;;;;;;;2.23;1.90;;;20.50;87.20;;;;;;4993017;28;20904;-70
2022/05/27 03:19:00;;;;;;;2.73;1.70;;;20.50;86.80;;;;;;4958419;28;20527;-70
2022/05/27 03:21:40;;;;;;;4.20;1.53;;;20.50;87.10;;;;;;4971026;28;20434;-69
2022/05/27 03:24:11;;;;;;;2.40;1.63;;;20.40;87.40;;;;;;4988060;28;20529;-70
2022/05/27 03:26:58;;;;;;;3.00;1.80;;;20.40;87.50;;;;;;4992658;28;20427;-70
2022/05/27 03:29:33;;;;;;;3.37;1.90;;;20.40;87.40;;;;;;4982243;28;21049;-69
2022/05/27 03:32:20;;;;;;;3.67;1.90;;;20.40;87.40;;;;;;4992445;28;20420;-69
2022/05/27 03:34:59;;;;;;;2.40;1.97;;;20.40;87.70;;;;;;5006902;28;20450;-70
2022/05/27 03:37:40;;;;;;;3.17;1.80;;;20.40;88.00;;;;;;4992174;28;20441;-70
2022/05/27 03:40:20;;;;;;;4.50;1.93;;;20.40;87.90;;;;;;4991423;28;20460;-69
2022/05/27 03:42:49;;;;;;;1.90;1.70;;;20.40;87.90;;;;;;4992293;28;21067;-69
2022/05/27 03:45:18;;;;;;;4.93;2.10;;;20.40;88.10;;;;;;4992095;28;20517;-70
2022/05/27 03:47:48;;;;;;;3.10;2.40;;;20.40;88.40;;;;;;4991501;28;20423;-69
2022/05/27 03:50:27;;;;;;;2.13;1.63;;;20.40;88.70;;;;;;4991979;28;20463;-69
2022/05/27 03:52:55;;;;;;;3.27;1.80;;;20.40;88.70;;;;;;4992384;28;20430;-70
2022/05/27 03:55:25;;;;;;;3.80;1.70;;;20.40;88.70;;;;;;4992524;28;20485;-70
2022/05/27 03:57:56;;;;;;;5.20;3.00;;;20.40;88.80;;;;;;4992037;28;21081;-69
2022/05/27 04:00:24;;;;;;;3.37;1.63;;;20.40;88.90;;;;;;4991415;28;20451;-69
2022/05/27 04:02:55;;;;;;;2.63;1.63;;;20.30;89.60;;;;;;4991032;28;20974;-69
2022/05/27 04:05:24;;;;;;;2.40;2.20;;;20.30;88.60;;;;;;4990974;28;20450;-69
2022/05/27 04:07:52;;;;;;;2.93;1.90;;;20.30;88.70;;;;;;4995169;28;20466;-70
2022/05/27 04:10:22;;;;;;;1.90;1.50;;;20.30;88.70;;;;;;5005001;28;20471;-69
2022/05/27 04:12:48;;;;;;;1.60;1.50;;;20.30;88.60;;;;;;4986036;28;20430;-69
2022/05/27 04:15:18;;;;;;;2.97;1.60;;;20.30;88.90;;;;;;4995278;28;20435;-70
2022/05/27 04:17:44;;;;;;;3.30;1.30;;;20.30;89.00;;;;;;4995345;28;20450;-69
2022/05/27 04:20:12;;;;;;;1.67;1.30;;;20.30;89.00;;;;;;5083843;23;20560;-71
2022/05/27 04:22:41;;;;;;;1.83;1.70;;;20.30;89.20;;;;;;5022361;28;20500;-70
2022/05/27 04:25:11;;;;;;;1.77;1.43;;;20.30;89.10;;;;;;5015852;28;20441;-71
2022/05/27 04:27:39;;;;;;;1.90;1.70;;;20.30;89.30;;;;;;5014805;28;20453;-72
2022/05/27 04:30:07;;;;;;;1.80;1.50;;;20.30;89.50;;;;;;4999274;28;20453;-72
2022/05/27 04:32:35;;;;;;;2.23;1.50;;;20.30;89.50;;;;;;5014255;28;20417;-73
2022/05/27 04:35:01;;;;;;;1.70;1.40;;;20.30;89.30;;;;;;5013901;28;20434;-71
2022/05/27 04:37:30;;;;;;;2.60;1.90;;;20.30;89.30;;;;;;5014098;28;20468;-72
2022/05/27 04:39:58;;;;;;;1.87;1.60;;;20.20;89.10;;;;;;4996096;28;20494;-72
2022/05/27 04:42:27;;;;;;;1.50;1.40;;;20.20;89.40;;;;;;5011175;28;20461;-72
2022/05/27 04:44:52;;;;;;;3.03;1.53;;;20.20;90.10;;;;;;5007523;28;20486;-72
2022/05/27 04:47:21;;;;;;;2.23;1.57;;;20.20;89.50;;;;;;5006561;28;20469;-72
2022/05/27 04:49:56;;;;;;;1.67;1.50;;;20.20;89.40;;;;;;5008746;28;20447;-72
2022/05/27 04:52:29;;;;;;;2.00;1.30;;;20.20;89.40;;;;;;4994967;28;20901;-72
2022/05/27 04:55:01;;;;;;;1.43;1.30;;;20.20;89.30;;;;;;4993040;28;20545;-72
2022/05/27 04:57:33;;;;;;;2.93;1.50;;;20.20;89.10;;;;;;5010865;28;20556;-72
2022/05/27 05:00:01;;;;;;;1.43;1.33;;;20.20;89.10;;;;;;5026456;28;20455;-72
2022/05/27 05:02:27;;;;;;;1.93;1.40;;;20.20;89.20;;;;;;4999112;28;20449;-72
2022/05/27 05:04:56;;;;;;;2.27;1.10;;;20.20;89.20;;;;;;5012557;28;20450;-72
2022/05/27 05:07:27;;;;;;;2.30;1.57;;;20.20;89.10;;;;;;5011847;28;20426;-72
2022/05/27 05:09:55;;;;;;;2.90;1.50;;;20.20;89.10;;;;;;5011333;28;20453;-72
2022/05/27 05:12:26;;;;;;;2.60;1.90;;;20.20;89.10;;;;;;5011367;28;20533;-72
2022/05/27 05:14:53;;;;;;;1.83;1.43;;;20.20;89.00;;;;;;5011392;28;20234;-72
2022/05/27 05:17:21;;;;;;;1.50;1.40;;;20.20;88.90;;;;;;5010206;28;20430;-72
2022/05/27 05:19:53;;;;;;;1.37;1.27;;;20.20;89.00;;;;;;5009781;28;20501;-72
2022/05/27 05:22:22;;;;;;;1.50;1.30;;;20.10;88.90;;;;;;5011226;28;20488;-72
2022/05/27 05:24:54;;;;;;;2.70;1.40;;;20.20;88.90;;;;;;5010451;28;20466;-72
2022/05/27 05:27:24;;;;;;;3.23;1.47;;;20.20;89.10;;;;;;4996656;28;20947;-72
2022/05/27 05:29:55;;;;;;;1.60;1.50;;;20.10;89.00;;;;;;5010240;28;20445;-72
2022/05/27 05:32:22;;;;;;;2.50;1.50;;;20.10;88.80;;;;;;5027047;28;20419;-72
2022/05/27 05:34:55;;;;;;;2.40;1.27;;;20.10;88.90;;;;;;5011623;28;20414;-73
2022/05/27 05:37:21;;;;;;;2.30;1.40;;;20.10;88.90;;;;;;4973510;28;20440;-72
2022/05/27 05:39:47;;;;;;;1.97;1.40;;;20.10;89.10;;;;;;5001795;28;20477;-72
2022/05/27 05:42:15;;;;;;;2.60;1.00;;;20.10;89.00;;;;;;5009768;28;20425;-72
2022/05/27 05:44:41;;;;;;;1.60;1.30;;;20.10;89.20;;;;;;5012115;28;20441;-72
2022/05/27 05:47:07;;;;;;;2.10;1.57;;;20.10;89.40;;;;;;5010890;28;20434;-72
2022/05/27 05:49:33;;;;;;;2.40;1.47;;;20.10;89.50;;;;;;5011721;28;20446;-72
2022/05/27 05:52:02;;;;;;;1.47;1.30;;;20.10;89.40;;;;;;5010470;28;20163;-72
2022/05/27 05:54:29;;;;;;;2.27;1.50;;;20.00;89.40;;;;;;5007524;28;20477;-72
2022/05/27 05:56:59;;;;;;;1.40;1.30;;;20.00;90.00;;;;;;5011236;28;20446;-72
2022/05/27 05:59:29;;;;;;;1.60;1.50;;;20.00;90.10;;;;;;4985957;28;20466;-70
2022/05/27 06:01:57;;;;;;;1.83;1.17;;;20.00;90.10;;;;;;4993464;28;20544;-72
2022/05/27 06:04:24;;;;;;;2.10;1.63;;;20.00;90.00;;;;;;5011400;28;20464;-72
2022/05/27 06:06:53;;;;;;;3.50;1.30;;;20.00;90.10;;;;;;5010089;28;20771;-71
2022/05/27 06:09:25;;;;;;;2.37;1.40;;;20.00;90.00;;;;;;5010817;28;20456;-71
2022/05/27 06:11:55;;;;;;;2.10;1.30;;;20.00;90.00;;;;;;5009794;28;20393;-70
2022/05/27 06:14:24;;;;;;;1.43;1.30;;;20.00;90.10;;;;;;5009861;28;20981;-71
2022/05/27 06:16:50;;;;;;;2.00;1.20;;;20.00;90.30;;;;;;5009116;28;20569;-70
2022/05/27 06:19:16;;;;;;;2.07;1.30;;;20.00;90.20;;;;;;4976471;28;20896;-70
2022/05/27 06:21:47;;;;;;;2.10;1.50;;;20.00;90.20;;;;;;4993270;28;20535;-70
2022/05/27 06:24:16;;;;;;;1.93;1.20;;;20.00;90.30;;;;;;5012246;28;20556;-71
2022/05/27 06:26:45;;;;;;;1.87;1.20;;;19.90;90.30;;;;;;5013416;28;20916;-72
2022/05/27 06:34:45;;;;;;;1.20;1.10;;;19.90;90.10;;;;;;5004014;28;21099;-71
2022/05/27 06:37:19;;;;;;;2.90;1.30;;;19.90;90.00;;;;;;5011649;28;20505;-71
2022/05/27 06:39:48;;;;;;;1.53;1.37;;;19.90;90.00;;;;;;4994342;28;20604;-71
2022/05/27 06:42:16;;;;;;;2.50;1.67;;;19.90;90.20;;;;;;5010979;28;20422;-72
2022/05/27 06:44:46;;;;;;;1.50;1.30;;;19.90;90.30;;;;;;5028357;28;20557;-71
2022/05/27 06:47:17;;;;;;;2.73;1.33;;;19.90;90.50;;;;;;5011705;28;20393;-71
2022/05/27 06:49:51;;;;;;;1.63;1.20;;;19.90;90.50;;;;;;5011648;28;20431;-71
2022/05/27 06:52:20;;;;;;;1.40;1.30;;;19.80;90.30;;;;;;5011061;28;20481;-70
2022/05/27 06:54:46;;;;;;;2.00;1.40;;;19.80;90.40;;;;;;5012385;28;20945;-71
2022/05/27 06:57:15;;;;;;;1.57;1.47;;;19.90;90.50;;;;;;5012852;28;20406;-71
2022/05/27 06:59:41;;;;;;;2.00;1.10;;;19.90;90.40;;;;;;5011603;28;20477;-71
2022/05/27 07:02:07;;;;;;;2.17;1.43;;;19.80;90.30;;;;;;5011698;28;20878;-71
2022/05/27 07:04:36;;;;;;;1.40;1.30;;;19.80;90.20;;;;;;5012396;28;20940;-71
2022/05/27 07:07:06;;;;;;;1.33;1.23;;;19.80;90.40;;;;;;5011436;28;20474;-70
2022/05/27 07:09:37;;;;;;;2.27;1.40;;;19.80;90.40;;;;;;5012632;28;20438;-71
2022/05/27 07:12:11;;;;;;;3.80;1.33;;;19.80;90.40;;;;;;4995442;28;20457;-71
2022/05/27 07:14:39;;;;;;;2.50;1.60;;;19.80;90.40;;;;;;4994894;28;20439;-71
2022/05/27 07:17:05;;;;;;;2.03;1.33;;;19.80;90.40;;;;;;5011534;28;20547;-71
2022/05/27 07:19:34;;;;;;;2.53;1.50;;;19.80;90.60;;;;;;4994770;28;20448;-71
2022/05/27 07:22:01;;;;;;;3.00;1.23;;;19.80;90.70;;;;;;5012166;28;20532;-71
2022/05/27 07:24:27;;;;;;;3.70;1.67;;;19.80;90.50;;;;;;5005149;28;20453;-71
2022/05/27 07:26:55;;;;;;;2.70;1.50;;;19.80;90.60;;;;;;4992816;28;20508;-71
2022/05/27 07:29:23;;;;;;;2.10;1.70;;;19.80;90.70;;;;;;4993054;28;20199;-71
2022/05/27 07:31:50;;;;;;;2.70;1.43;;;19.80;90.80;;;;;;4991819;28;20908;-71
2022/05/27 07:34:16;;;;;;;1.97;1.30;;;19.80;91.00;;;;;;4992156;28;20431;-71
2022/05/27 07:36:42;;;;;;;2.40;1.50;;;19.80;91.10;;;;;;5009723;28;20505;-70
2022/05/27 07:39:10;;;;;;;1.63;1.23;;;19.80;91.00;;;;;;4991565;28;20445;-71
2022/05/27 07:41:37;;;;;;;1.73;1.33;;;19.80;90.80;;;;;;4991523;28;20418;-71
2022/05/27 07:44:04;;;;;;;2.57;1.40;;;19.80;90.80;;;;;;4991568;28;20465;-71
2022/05/27 07:46:32;;;;;;;2.70;1.33;;;19.80;90.70;;;;;;4975605;28;20830;-71
2022/05/27 07:49:04;;;;;;;2.60;1.30;;;19.80;90.70;;;;;;5007607;28;20399;-71
2022/05/27 07:51:31;;;;;;;3.00;1.33;;;19.80;90.80;;;;;;4991551;28;20423;-71
2022/05/27 07:54:02;;;;;;;4.00;2.20;;;19.80;90.80;;;;;;4991485;28;20465;-71
2022/05/27 07:56:30;;;;;;;6.00;3.90;;;19.80;91.00;;;;;;4991615;28;20492;-71
2022/05/27 07:58:59;;;;;;;6.33;3.63;;;19.80;92.60;;;;;;4991159;28;20424;-71
2022/05/27 08:01:25;;;;;;;9.53;4.33;;;19.80;93.70;;;;;;4975125;28;21009;-71
2022/05/27 08:03:51;;;;;;;10.23;4.63;;;19.70;95.10;;;;;;4991582;28;20538;-71
2022/05/27 08:06:19;;;;;;;6.87;3.70;;;19.60;95.90;;;;;;4995749;28;20963;-71
2022/05/27 08:08:50;;;;;;;9.13;4.80;;;19.50;96.30;;;;;;5011047;28;20171;-71
2022/05/27 08:11:21;;;;;;;7.67;4.23;;;19.40;96.80;;;;;;5011547;28;20446;-71
2022/05/27 08:13:49;;;;;;;5.53;3.80;;;19.40;97.10;;;;;;5010926;28;20831;-71
2022/05/27 08:16:16;;;;;;;6.97;4.37;;;19.40;98.30;;;;;;5012046;28;20894;-71
2022/05/27 08:18:44;;;;;;;6.10;3.67;;;19.30;98.70;;;;;;4994812;28;20428;-71
2022/05/27 08:21:36;;;;;;;7.70;3.90;;;19.30;98.70;;;;;;5011705;28;20486;-71
2022/05/27 08:24:09;;;;;;;6.63;3.47;;;19.20;98.90;;;;;;5010685;28;20467;-71
2022/05/27 08:26:37;;;;;;;8.13;3.83;;;19.30;99.10;;;;;;5010879;28;20532;-72
2022/05/27 08:29:07;;;;;;;3.97;2.90;;;19.20;98.50;;;;;;5010771;28;20791;-71
2022/05/27 08:31:38;;;;;;;6.07;3.20;;;19.20;98.50;;;;;;4994387;28;20406;-71
2022/05/27 08:39:42;;;;;;;7.17;2.97;;;19.20;97.60;;;;;;5009420;28;20444;-71
2022/05/27 08:42:30;;;;;;;7.33;3.20;;;19.20;97.50;;;;;;5009307;28;20417;-71
2022/05/27 08:45:16;;;;;;;6.37;3.57;;;19.10;97.40;;;;;;5010125;28;20539;-71
2022/05/27 08:48:06;;;;;;;6.50;3.70;;;19.10;97.90;;;;;;5010144;28;20478;-71
2022/05/27 08:50:35;;;;;;;10.33;3.27;;;19.10;97.50;;;;;;4993944;28;20444;-71
2022/05/27 08:53:41;;;;;;;7.50;3.80;;;19.10;97.10;;;;;;4994278;28;20953;-72
2022/05/27 08:59:28;;;;;;;7.63;3.50;;;19.10;97.30;;;;;;4996079;28;20441;-71
2022/05/27 09:02:15;;;;;;;7.73;3.93;;;19.10;97.10;;;;;;5014779;28;20963;-71
2022/05/27 09:04:56;;;;;;;5.23;2.83;;;19.00;96.50;;;;;;5014839;28;20564;-72
2022/05/27 09:07:43;;;;;;;6.20;3.20;;;19.00;96.40;;;;;;4993728;28;20439;-71
2022/05/27 09:10:21;;;;;;;7.30;3.47;;;18.90;96.70;;;;;;4995276;28;20437;-71
2022/05/27 09:12:53;;;;;;;6.47;2.93;;;19.00;97.40;;;;;;4993942;28;20496;-72
2022/05/27 09:15:27;;;;;;;7.17;3.40;;;19.10;97.80;;;;;;4977899;28;20466;-72
2022/05/27 09:17:53;;;;;;;7.10;2.87;;;19.10;97.00;;;;;;4993834;28;20435;-71
2022/05/27 09:20:44;;;;;;;6.60;3.60;;;19.10;97.30;;;;;;4993506;28;20548;-71
2022/05/27 09:23:17;;;;;;;6.53;3.10;;;19.10;96.20;;;;;;5007052;28;20214;-72
2022/05/27 09:25:56;;;;;;;10.57;2.83;;;19.10;95.60;;;;;;5013352;28;20471;-71
2022/05/27 09:28:31;;;;;;;5.30;3.50;;;19.10;95.60;;;;;;5013545;28;20432;-71
2022/05/27 09:31:02;;;;;;;12.43;2.70;;;19.10;95.40;;;;;;5012961;28;20458;-71
2022/05/27 09:33:30;;;;;;;9.53;3.03;;;19.20;94.50;;;;;;5013383;28;20447;-71
2022/05/27 09:36:02;;;;;;;5.87;2.80;;;19.20;95.50;;;;;;5013216;28;20421;-71
2022/05/27 09:38:34;;;;;;;5.70;2.30;;;19.30;94.90;;;;;;5012756;28;20463;-71
2022/05/27 09:41:13;;;;;;;10.00;3.03;;;19.40;94.70;;;;;;5012877;28;20452;-71
2022/05/27 09:43:44;;;;;;;5.67;2.67;;;19.40;94.00;;;;;;5012552;28;20910;-72
2022/05/27 09:46:31;;;;;;;5.07;2.60;;;19.40;93.70;;;;;;4997611;28;20820;-74
2022/05/27 09:48:58;;;;;;;7.40;3.27;;;19.40;93.10;;;;;;4997088;28;20463;-71
2022/05/27 09:51:28;;;;;;;8.60;2.93;;;19.40;92.70;;;;;;5013251;28;20426;-72
2022/05/27 09:54:11;;;;;;;10.57;3.00;;;19.40;93.20;;;;;;5014037;28;20496;-72
2022/05/27 09:56:41;;;;;;;8.57;3.50;;;19.40;92.70;;;;;;5012694;28;20510;-72
2022/05/27 09:59:33;;;;;;;6.13;2.80;;;19.50;93.00;;;;;;5014162;28;20157;-72
2022/05/27 10:02:13;;;;;;;15.63;3.80;;;19.60;90.80;;;;;;5013873;28;20451;-71
2022/05/27 10:04:59;;;;;;;15.63;3.30;;;19.60;91.10;;;;;;4996600;28;20471;-71
2022/05/27 10:07:30;;;;;;;6.83;2.67;;;19.60;91.00;;;;;;5014055;28;20398;-72
2022/05/27 10:10:30;;;;;;;12.03;3.03;;;19.50;91.30;;;;;;5014167;28;20460;-72
2022/05/27 10:13:18;;;;;;;7.93;2.90;;;19.50;91.40;;;;;;5013890;28;20447;-72
2022/05/27 10:15:48;;;;;;;7.00;2.93;;;19.50;91.30;;;;;;5012642;28;20435;-71
2022/05/27 10:18:19;;;;;;;9.20;3.43;;;19.50;91.10;;;;;;5012695;28;20522;-71
2022/05/27 10:20:53;;;;;;;9.63;3.20;;;19.60;90.70;;;;;;5011680;28;20472;-71
2022/05/27 10:23:29;;;;;;;5.73;2.70;;;19.50;91.70;;;;;;5012634;28;20824;-71
2022/05/27 10:25:55;;;;;;;8.33;3.00;;;19.50;90.50;;;;;;4996152;28;20507;-71
2022/05/27 10:28:29;;;;;;;5.00;3.30;;;19.50;91.00;;;;;;5013646;28;20415;-71
2022/05/27 10:31:16;;;;;;;6.63;2.80;;;19.60;91.50;;;;;;5012304;28;20470;-71
2022/05/27 10:33:49;;;;;;;7.77;2.80;;;19.60;90.60;;;;;;4996178;28;20443;-72
2022/05/27 10:36:31;;;;;;;11.47;3.80;;;19.70;90.70;;;;;;5013406;28;20410;-72
2022/05/27 10:39:03;;;;;;;13.03;2.80;;;19.80;90.10;;;;;;5012209;28;20962;-72
2022/05/27 10:41:40;;;;;;;7.60;2.90;;;19.90;90.10;;;;;;5012262;28;20405;-71
2022/05/27 10:44:28;;;;;;;10.10;3.43;;;20.00;89.80;;;;;;4995751;28;20965;-72
2022/05/27 10:47:01;;;;;;;8.90;3.00;;;20.10;87.70;;;;;;5013086;28;20464;-71
2022/05/27 10:49:47;;;;;;;17.13;4.10;;;20.10;88.50;;;;;;5012193;28;20448;-71
2022/05/27 10:52:34;;;;;;;5.93;2.93;;;20.10;88.30;;;;;;4991760;28;20468;-71
2022/05/27 10:55:23;;;;;;;7.27;3.20;;;20.10;90.10;;;;;;4993443;28;20414;-71
2022/05/27 11:04:31;;;;;;;5.80;2.70;;;20.20;88.20;;;;;;4992224;28;20479;-71
2022/05/27 11:07:06;;;;;;;8.13;3.00;;;20.20;88.50;;;;;;4976225;28;20419;-71
2022/05/27 11:10:02;;;;;;;6.97;2.97;;;20.20;88.20;;;;;;4992116;28;20440;-71
2022/05/27 11:15:50;;;;;;;6.70;3.00;;;20.30;86.60;;;;;;5008263;28;20821;-71
2022/05/27 11:18:54;;;;;;;7.77;2.90;;;20.30;84.90;;;;;;4975796;28;20426;-72
2022/05/27 11:21:33;;;;;;;5.10;2.80;;;20.30;83.00;;;;;;5008095;28;20463;-71
2022/05/27 11:24:14;;;;;;;11.17;3.40;;;20.40;84.70;;;;;;5011582;28;20448;-71
2022/05/27 11:27:01;;;;;;;7.67;2.80;;;20.40;83.60;;;;;;4995068;28;20457;-72
2022/05/27 11:29:45;;;;;;;9.27;2.97;;;20.50;84.50;;;;;;5011431;28;20473;-71
2022/05/27 11:32:21;;;;;;;4.90;2.70;;;20.60;82.50;;;;;;5012491;28;20473;-71
2022/05/27 11:35:09;;;;;;;9.40;3.60;;;20.60;81.60;;;;;;5012448;28;20414;-71
2022/05/27 11:38:10;;;;;;;6.00;2.87;;;20.50;81.90;;;;;;4994891;28;20475;-71
2022/05/27 11:41:02;;;;;;;5.27;3.30;;;20.60;82.70;;;;;;4998143;28;20465;-71
2022/05/27 11:43:52;;;;;;;4.73;2.60;;;20.50;80.20;;;;;;5011155;28;20997;-71
2022/05/27 11:46:33;;;;;;;4.67;2.80;;;20.50;81.20;;;;;;5012327;28;20412;-71
2022/05/27 11:49:05;;;;;;;8.30;3.30;;;20.60;81.30;;;;;;5011300;28;20453;-71
2022/05/27 11:52:09;;;;;;;7.33;2.53;;;20.70;79.50;;;;;;5010813;28;20445;-72
2022/05/27 11:54:47;;;;;;;8.37;2.70;;;20.70;79.30;;;;;;5012622;28;20497;-73
2022/05/27 11:57:36;;;;;;;6.20;2.60;;;20.70;79.40;;;;;;5010500;28;20507;-73
2022/05/27 12:00:12;;;;;;;7.17;2.97;;;20.60;79.60;;;;;;5010760;28;20805;-73
2022/05/27 12:02:57;;;;;;;6.00;2.87;;;20.60;78.90;;;;;;5010753;28;20427;-72
2022/05/27 12:05:26;;;;;;;7.90;2.53;;;20.70;79.50;;;;;;5012058;28;20509;-72
2022/05/27 12:08:29;;;;;;;10.40;2.80;;;20.80;77.00;;;;;;5011187;28;20467;-72
2022/05/27 12:11:03;;;;;;;6.00;2.90;;;20.90;72.80;;;;;;4994659;28;20458;-72
2022/05/27 12:13:37;;;;;;;5.90;2.30;;;20.90;72.40;;;;;;4994635;28;20414;-73
2022/05/27 12:16:12;;;;;;;5.57;2.40;;;20.80;69.80;;;;;;5011123;28;20415;-72
2022/05/27 12:18:44;;;;;;;11.13;2.60;;;20.70;71.40;;;;;;5011068;28;20902;-72
2022/05/27 12:21:23;;;;;;;5.20;2.20;;;20.70;71.90;;;;;;5011093;28;20459;-72
2022/05/27 12:24:15;;;;;;;4.20;1.97;;;20.70;72.20;;;;;;5011843;28;20429;-73
2022/05/27 12:26:42;;;;;;;6.43;2.80;;;20.70;73.30;;;;;;4994741;28;20483;-72
2022/05/27 12:29:11;;;;;;;6.23;2.87;;;20.70;71.50;;;;;;4996326;28;20417;-73
2022/05/27 12:31:41;;;;;;;6.07;2.23;;;20.70;70.00;;;;;;5015515;28;20422;-73
2022/05/27 12:34:26;;;;;;;7.50;2.70;;;20.80;68.10;;;;;;5014296;28;20888;-73
2022/05/27 12:37:22;;;;;;;5.03;2.60;;;20.80;67.00;;;;;;5014018;28;20441;-73
2022/05/27 12:39:56;;;;;;;6.07;2.80;;;20.80;68.50;;;;;;5012858;28;20836;-73
2022/05/27 12:42:25;;;;;;;4.43;2.40;;;20.90;70.00;;;;;;5014995;28;20481;-73
2022/05/27 12:44:57;;;;;;;4.50;2.50;;;20.90;65.60;;;;;;4997921;28;20474;-73
2022/05/27 12:47:34;;;;;;;10.23;3.13;;;20.90;67.10;;;;;;5015458;28;20402;-75
2022/05/27 12:50:02;;;;;;;17.30;2.97;;;20.90;65.40;;;;;;5015076;28;20430;-74
2022/05/27 12:52:30;;;;;;;10.90;2.83;;;21.00;64.40;;;;;;5016311;28;20892;-74
2022/05/27 12:54:56;;;;;;;5.90;2.17;;;21.10;68.30;;;;;;5015063;28;20464;-74
2022/05/27 13:03:42;;;;;;;5.67;2.77;;;21.10;65.70;;;;;;5015037;28;20535;-74
2022/05/27 13:06:13;;;;;;;5.43;2.30;;;21.00;62.00;;;;;;5015034;28;20904;-74
2022/05/27 13:08:46;;;;;;;16.70;3.40;;;20.90;61.90;;;;;;5014805;28;20394;-74
2022/05/27 13:11:21;;;;;;;7.40;2.50;;;20.90;63.40;;;;;;4998610;28;20444;-74
2022/05/27 13:13:53;;;;;;;5.00;2.30;;;20.90;61.80;;;;;;5013512;28;20407;-74
2022/05/27 13:16:35;;;;;;;6.60;2.27;;;21.00;59.30;;;;;;5014674;28;20630;-74
2022/05/27 13:19:08;;;;;;;6.87;2.70;;;21.00;62.10;;;;;;5014497;28;20438;-73
2022/05/27 13:21:44;;;;;;;10.00;2.50;;;21.00;62.20;;;;;;5015511;28;20433;-74
2022/05/27 13:24:13;;;;;;;8.53;2.87;;;20.90;64.60;;;;;;5001237;28;20472;-74
2022/05/27 13:26:58;;;;;;;14.60;3.10;;;20.80;63.30;;;;;;5033538;28;20394;-74
2022/05/27 13:29:28;;;;;;;9.83;3.40;;;20.70;63.60;;;;;;5034603;28;20436;-74
2022/05/27 13:32:03;;;;;;;6.50;2.20;;;20.60;65.20;;;;;;5017035;28;20411;-74
2022/05/27 13:34:45;;;;;;;8.97;2.40;;;20.70;63.80;;;;;;5033099;28;20415;-74
2022/05/27 13:37:37;;;;;;;5.30;2.47;;;20.70;64.00;;;;;;5005923;28;20509;-74
2022/05/27 13:40:08;;;;;;;9.97;2.73;;;20.80;63.90;;;;;;5012910;28;20465;-74
2022/05/27 13:42:42;;;;;;;5.70;2.10;;;20.90;64.40;;;;;;5012992;28;20398;-74
2022/05/27 13:45:13;;;;;;;6.60;2.33;;;21.00;64.70;;;;;;5012981;28;20470;-74
2022/05/27 13:47:44;;;;;;;6.33;2.23;;;21.00;63.60;;;;;;5013316;28;20512;-74
2022/05/27 13:51:02;;;;;;;5.00;2.30;;;21.10;62.40;;;;;;5014268;28;20449;-74
2022/05/27 13:53:36;;;;;;;7.40;2.63;;;21.00;63.10;;;;;;4937722;29;20442;-74
2022/05/27 13:56:15;;;;;;;6.07;2.50;;;21.00;62.70;;;;;;4937687;29;20437;-74
2022/05/27 13:59:02;;;;;;;10.77;3.53;;;21.10;61.00;;;;;;4953262;29;20456;-74
2022/05/27 14:01:38;;;;;;;7.87;2.23;;;21.10;61.40;;;;;;4937393;29;20556;-74